createdAt,value
2018-12-12T00:01:16.234Z,2.03
2018-12-12T00:03:44.634Z,1.70
2018-12-12T00:06:12.958Z,2.03
2018-12-12T00:08:41.240Z,2.17
2018-12-12T00:11:09.516Z,2.30
2018-12-12T00:13:37.925Z,2.13
2018-12-12T00:16:06.709Z,2.10
2018-12-12T00:18:35.074Z,2.60
2018-12-12T00:21:03.673Z,2.30
2018-12-12T00:23:32.667Z,2.50
2018-12-12T00:26:01.018Z,2.50
2018-12-12T00:28:29.463Z,2.50
2018-12-12T00:30:57.758Z,2.70
2018-12-12T00:33:26.097Z,2.50
2018-12-12T00:35:54.404Z,2.50
2018-12-12T00:38:22.758Z,2.40
2018-12-12T00:40:51.193Z,2.83
2018-12-12T00:43:19.615Z,2.50
2018-12-12T00:45:48.101Z,2.77
2018-12-12T00:48:16.536Z,2.70
2018-12-12T00:50:44.881Z,3.40
2018-12-12T00:53:13.760Z,2.43
2018-12-12T00:55:42.258Z,2.33
2018-12-12T00:58:10.674Z,2.50
2018-12-12T01:00:39.137Z,2.20
2018-12-12T01:03:07.458Z,1.77
2018-12-12T01:05:35.930Z,1.93
2018-12-12T01:08:04.616Z,2.20
2018-12-12T01:10:33.463Z,2.00
2018-12-12T01:13:01.857Z,2.00
2018-12-12T01:15:30.497Z,1.93
2018-12-12T01:17:59.078Z,1.80
2018-12-12T01:20:27.549Z,2.00
2018-12-12T01:22:55.951Z,1.97
2018-12-12T01:25:24.373Z,2.07
2018-12-12T01:27:52.849Z,1.83
2018-12-12T01:30:21.278Z,1.90
2018-12-12T01:32:49.649Z,2.70
2018-12-12T01:35:18.062Z,2.57
2018-12-12T01:37:46.666Z,2.90
2018-12-12T01:40:15.043Z,2.90
2018-12-12T01:42:43.503Z,2.80
2018-12-12T01:45:11.927Z,2.43
2018-12-12T01:47:40.238Z,2.43
2018-12-12T01:50:08.609Z,2.40
2018-12-12T01:52:37.067Z,2.20
2018-12-12T01:55:05.544Z,1.80
2018-12-12T01:57:33.871Z,1.83
2018-12-12T02:00:02.186Z,1.93
2018-12-12T02:02:30.655Z,1.77
2018-12-12T02:04:59.082Z,1.93
2018-12-12T02:07:27.494Z,2.03
2018-12-12T02:09:55.791Z,2.27
2018-12-12T02:12:24.249Z,1.83
2018-12-12T02:14:52.542Z,2.20
2018-12-12T02:17:20.946Z,1.63
2018-12-12T02:19:49.246Z,1.60
2018-12-12T02:22:17.580Z,1.70
2018-12-12T02:24:46.050Z,2.10
2018-12-12T02:27:14.820Z,1.63
2018-12-12T02:29:43.623Z,1.90
2018-12-12T02:32:11.924Z,1.63
2018-12-12T02:34:40.278Z,1.63
2018-12-12T02:37:08.610Z,1.67
2018-12-12T02:39:37.232Z,1.50
2018-12-12T02:42:05.623Z,1.57
2018-12-12T02:44:34.345Z,1.67
2018-12-12T02:47:02.743Z,1.97
2018-12-12T02:49:32.350Z,1.77
2018-12-12T02:52:01.023Z,2.10
2018-12-12T02:54:29.441Z,2.00
2018-12-12T02:56:57.750Z,1.93
2018-12-12T02:59:26.115Z,1.90
2018-12-12T03:01:55.461Z,1.70
2018-12-12T03:04:23.836Z,1.63
2018-12-12T03:06:53.325Z,1.73
2018-12-12T03:09:21.791Z,1.80
2018-12-12T03:11:50.194Z,1.67
2018-12-12T03:14:18.628Z,1.40
2018-12-12T03:16:47.097Z,1.30
2018-12-12T03:19:15.474Z,1.40
2018-12-12T03:21:43.996Z,1.40
2018-12-12T03:24:12.515Z,1.50
2018-12-12T03:26:41.090Z,1.33
2018-12-12T03:29:09.812Z,1.60
2018-12-12T03:31:38.763Z,1.43
2018-12-12T03:34:07.325Z,1.87
2018-12-12T03:36:35.594Z,1.70
2018-12-12T03:39:06.897Z,1.60
2018-12-12T03:41:35.633Z,1.60
2018-12-12T03:44:04.130Z,1.63
2018-12-12T03:46:32.642Z,1.30
2018-12-12T03:49:01.630Z,1.20
2018-12-12T03:51:30.248Z,1.73
2018-12-12T03:53:58.849Z,1.50
2018-12-12T03:56:27.162Z,1.70
2018-12-12T03:58:55.462Z,1.60
2018-12-12T04:01:24.076Z,1.60
2018-12-12T04:03:52.613Z,1.70
2018-12-12T04:06:20.993Z,1.57
2018-12-12T04:08:49.344Z,1.20
2018-12-12T04:11:17.861Z,1.70
2018-12-12T04:13:46.286Z,1.60
2018-12-12T04:16:15.106Z,1.70
2018-12-12T04:18:43.382Z,1.50
2018-12-12T04:21:11.710Z,1.40
2018-12-12T04:23:40.206Z,1.40
2018-12-12T04:26:08.566Z,1.60
2018-12-12T04:28:36.839Z,1.80
2018-12-12T04:31:05.239Z,1.60
2018-12-12T04:33:33.519Z,1.43
2018-12-12T04:36:01.869Z,1.50
2018-12-12T04:38:30.132Z,1.50
2018-12-12T04:40:58.454Z,1.60
2018-12-12T04:43:26.703Z,1.77
2018-12-12T04:45:55.126Z,1.30
2018-12-12T04:48:23.530Z,1.50
2018-12-12T04:50:52.013Z,1.50
2018-12-12T04:53:20.366Z,1.30
2018-12-12T04:55:48.703Z,1.43
2018-12-12T04:58:17.070Z,1.47
2018-12-12T05:00:45.365Z,1.40
2018-12-12T05:03:13.625Z,1.60
2018-12-12T05:05:42.008Z,1.70
2018-12-12T05:08:10.378Z,1.67
2018-12-12T05:10:38.877Z,1.70
2018-12-12T05:13:07.221Z,1.70
2018-12-12T05:15:35.741Z,1.80
2018-12-12T05:18:04.082Z,1.97
2018-12-12T05:20:32.860Z,2.23
2018-12-12T05:23:01.195Z,2.30
2018-12-12T05:25:29.643Z,2.70
2018-12-12T05:27:57.965Z,2.30
2018-12-12T05:30:26.319Z,2.20
2018-12-12T05:32:54.569Z,2.83
2018-12-12T05:35:22.853Z,3.17
2018-12-12T05:37:52.397Z,2.70
2018-12-12T05:40:21.494Z,2.80
2018-12-12T05:42:49.829Z,2.90
2018-12-12T05:45:18.850Z,2.90
2018-12-12T05:47:47.350Z,3.10
2018-12-12T05:50:15.743Z,3.03
2018-12-12T05:52:44.197Z,3.10
2018-12-12T05:55:12.686Z,2.90
2018-12-12T05:57:40.976Z,3.00
2018-12-12T06:00:10.514Z,2.67
2018-12-12T06:02:39.054Z,2.60
2018-12-12T06:05:07.602Z,2.97
2018-12-12T06:07:35.954Z,2.60
2018-12-12T06:10:05.280Z,2.40
2018-12-12T06:12:33.651Z,2.33
2018-12-12T06:15:02.176Z,1.90
2018-12-12T06:17:30.627Z,2.10
2018-12-12T06:19:59.218Z,1.70
2018-12-12T06:22:28.516Z,2.37
2018-12-12T06:25:36.853Z,2.50
2018-12-12T06:28:54.134Z,1.90
2018-12-12T06:32:19.848Z,2.30
2018-12-12T06:35:28.333Z,2.17
2018-12-12T06:38:35.140Z,2.43
2018-12-12T06:47:49.870Z,2.93
2018-12-12T06:53:52.587Z,4.37
2018-12-12T06:56:43.886Z,4.37
2018-12-12T06:59:33.790Z,3.93
2018-12-12T07:02:14.886Z,3.20
2018-12-12T07:04:56.191Z,3.23
2018-12-12T07:14:21.637Z,4.70
2018-12-12T07:17:19.663Z,4.27
2018-12-12T07:23:12.818Z,4.40
2018-12-12T07:28:35.270Z,3.87
2018-12-12T07:31:03.721Z,3.97
2018-12-12T07:33:32.062Z,4.27
2018-12-12T07:36:00.714Z,4.10
2018-12-12T07:38:29.085Z,4.80
2018-12-12T07:40:57.411Z,5.93
2018-12-12T07:43:25.755Z,6.07
2018-12-12T07:45:54.077Z,7.80
2018-12-12T07:48:22.790Z,8.83
2018-12-12T07:50:51.307Z,9.87
2018-12-12T07:53:19.743Z,9.13
2018-12-12T07:55:48.135Z,8.10
2018-12-12T07:58:16.610Z,9.10
2018-12-12T08:00:45.243Z,8.30
2018-12-12T08:03:13.502Z,7.97
2018-12-12T08:05:41.879Z,7.53
2018-12-12T08:08:10.486Z,7.40
2018-12-12T08:10:39.107Z,7.70
2018-12-12T08:13:07.568Z,7.93
2018-12-12T08:15:36.081Z,9.50
2018-12-12T08:18:04.488Z,14.03
2018-12-12T08:20:33.061Z,39.23
2018-12-12T08:23:01.778Z,33.00
2018-12-12T08:25:30.366Z,37.67
2018-12-12T08:27:58.818Z,48.37
2018-12-12T08:30:27.239Z,55.73
2018-12-12T08:32:55.558Z,48.50
2018-12-12T08:35:23.907Z,30.93
2018-12-12T08:37:52.301Z,21.73
2018-12-12T08:40:20.551Z,16.43
2018-12-12T08:42:48.894Z,13.40
2018-12-12T08:45:17.245Z,14.27
2018-12-12T08:47:45.550Z,14.17
2018-12-12T08:50:13.985Z,9.30
2018-12-12T08:52:42.350Z,12.93
2018-12-12T08:55:10.710Z,10.60
2018-12-12T08:57:38.981Z,11.47
2018-12-12T09:00:07.602Z,16.57
2018-12-12T09:02:36.146Z,20.30
2018-12-12T09:05:04.862Z,15.67
2018-12-12T09:07:33.326Z,11.37
2018-12-12T09:10:01.806Z,9.73
2018-12-12T09:12:30.066Z,11.17
2018-12-12T09:15:10.394Z,11.50
2018-12-12T09:17:38.891Z,9.90
2018-12-12T09:20:07.405Z,8.90
2018-12-12T09:22:35.806Z,9.43
2018-12-12T09:25:04.556Z,9.57
2018-12-12T09:27:32.915Z,9.70
2018-12-12T09:30:01.366Z,8.87
2018-12-12T09:32:30.106Z,8.93
2018-12-12T09:34:58.422Z,9.60
2018-12-12T09:37:26.782Z,10.23
2018-12-12T09:39:55.157Z,17.60
2018-12-12T09:42:23.454Z,18.20
2018-12-12T09:44:52.193Z,13.20
2018-12-12T09:47:20.943Z,11.63
2018-12-12T09:49:49.310Z,11.40
2018-12-12T09:52:17.719Z,12.60
2018-12-12T09:54:46.055Z,15.80
2018-12-12T09:57:14.420Z,17.00
2018-12-12T09:59:42.842Z,14.33
2018-12-12T10:02:11.302Z,13.77
2018-12-12T10:04:39.698Z,14.40
2018-12-12T10:07:08.118Z,14.80
2018-12-12T10:09:36.514Z,15.80
2018-12-12T10:12:04.833Z,12.83
2018-12-12T10:14:37.535Z,11.77
2018-12-12T10:17:05.931Z,12.13
2018-12-12T10:19:34.750Z,13.73
2018-12-12T10:22:03.394Z,14.80
2018-12-12T10:24:31.782Z,16.10
2018-12-12T10:27:00.343Z,16.20
2018-12-12T10:29:28.970Z,16.27
2018-12-12T10:31:57.420Z,16.40
2018-12-12T10:34:26.020Z,17.47
2018-12-12T10:36:55.832Z,20.67
2018-12-12T10:39:24.395Z,18.43
2018-12-12T10:41:54.230Z,17.10
2018-12-12T10:44:22.638Z,16.33
2018-12-12T10:46:50.979Z,13.13
2018-12-12T10:49:19.266Z,15.10
2018-12-12T10:51:47.631Z,14.87
2018-12-12T10:54:16.027Z,15.50
2018-12-12T10:56:44.415Z,22.53
2018-12-12T10:59:12.969Z,16.77
2018-12-12T11:01:47.027Z,15.97
2018-12-12T11:04:16.610Z,19.77
2018-12-12T11:06:44.974Z,19.20
2018-12-12T11:09:13.386Z,19.00
2018-12-12T11:11:41.667Z,19.43
2018-12-12T11:14:10.012Z,18.13
2018-12-12T11:16:38.338Z,20.63
2018-12-12T11:19:06.619Z,17.77
2018-12-12T11:21:34.942Z,16.67
2018-12-12T11:24:03.449Z,15.20
2018-12-12T11:26:31.878Z,14.47
2018-12-12T11:29:00.397Z,15.43
2018-12-12T11:31:28.773Z,15.53
2018-12-12T11:33:57.330Z,17.33
2018-12-12T11:36:25.931Z,16.60
2018-12-12T11:38:55.014Z,18.30
2018-12-12T11:41:23.333Z,18.43
2018-12-12T11:43:52.101Z,20.47
2018-12-12T11:46:20.409Z,20.53
2018-12-12T11:48:48.734Z,20.77
2018-12-12T11:51:17.129Z,20.50
2018-12-12T11:53:45.397Z,19.67
2018-12-12T11:56:13.722Z,19.73
2018-12-12T11:58:44.045Z,18.23
2018-12-12T12:01:12.511Z,20.77
2018-12-12T12:03:40.861Z,22.10
2018-12-12T12:06:09.222Z,22.80
2018-12-12T12:08:37.673Z,24.23
2018-12-12T12:11:05.995Z,27.17
2018-12-12T12:13:34.362Z,26.73
2018-12-12T12:16:03.494Z,28.07
2018-12-12T12:18:31.810Z,26.87
2018-12-12T12:21:00.255Z,24.13
2018-12-12T12:23:28.503Z,27.07
2018-12-12T12:25:56.908Z,30.47
2018-12-12T12:28:25.237Z,32.77
2018-12-12T12:30:53.533Z,26.73
2018-12-12T12:33:21.943Z,25.97
2018-12-12T12:35:50.468Z,25.13
2018-12-12T12:38:18.950Z,23.73
2018-12-12T12:40:47.262Z,23.40
2018-12-12T12:43:15.621Z,23.43
2018-12-12T12:45:43.978Z,26.07
2018-12-12T12:48:12.405Z,28.50
2018-12-12T12:50:41.070Z,29.87
2018-12-12T12:53:09.465Z,31.57
2018-12-12T12:55:37.838Z,32.93
2018-12-12T12:58:06.197Z,32.50
2018-12-12T13:00:35.554Z,37.50
2018-12-12T13:03:04.214Z,36.40
2018-12-12T13:05:32.482Z,33.47
2018-12-12T13:08:01.726Z,27.87
2018-12-12T13:10:30.298Z,33.10
2018-12-12T13:12:58.933Z,38.50
2018-12-12T13:15:58.821Z,35.23
2018-12-12T13:18:27.295Z,27.50
2018-12-12T13:20:55.546Z,25.33
2018-12-12T13:23:23.997Z,24.27
2018-12-12T13:25:52.292Z,22.97
2018-12-12T13:28:20.609Z,21.77
2018-12-12T13:30:48.961Z,21.07
2018-12-12T13:33:17.358Z,20.20
2018-12-12T13:35:46.101Z,20.10
2018-12-12T13:38:14.429Z,20.50
2018-12-12T13:40:42.693Z,23.03
2018-12-12T13:43:11.129Z,23.13
2018-12-12T13:45:39.503Z,21.73
2018-12-12T13:48:07.801Z,22.43
2018-12-12T13:50:36.142Z,28.07
2018-12-12T13:53:04.650Z,36.53
2018-12-12T13:55:33.513Z,42.40
2018-12-12T13:58:02.225Z,38.33
2018-12-12T14:00:30.844Z,37.27
2018-12-12T14:02:59.329Z,35.13
2018-12-12T14:05:27.766Z,35.33
2018-12-12T14:07:56.219Z,35.97
2018-12-12T14:10:24.429Z,38.43
2018-12-12T14:12:52.875Z,31.27
2018-12-12T14:15:52.629Z,24.00
2018-12-12T14:18:21.092Z,20.87
2018-12-12T14:20:49.326Z,20.77
2018-12-12T14:23:17.683Z,22.70
2018-12-12T14:25:46.103Z,22.40
2018-12-12T14:28:14.513Z,21.43
2018-12-12T14:30:43.114Z,20.63
2018-12-12T14:33:11.773Z,19.67
2018-12-12T14:35:40.874Z,20.80
2018-12-12T14:38:09.322Z,20.07
2018-12-12T14:40:37.719Z,20.63
2018-12-12T14:43:06.061Z,24.87
2018-12-12T14:45:34.657Z,29.60
2018-12-12T14:48:03.022Z,30.73
2018-12-12T14:50:31.581Z,30.57
2018-12-12T14:52:59.966Z,27.70
2018-12-12T14:55:28.305Z,23.90
2018-12-12T14:57:56.662Z,25.57
2018-12-12T15:00:25.082Z,25.93
2018-12-12T15:02:53.471Z,23.63
2018-12-12T15:05:21.777Z,24.47
2018-12-12T15:07:50.157Z,24.73
2018-12-12T15:10:18.589Z,27.90
2018-12-12T15:12:47.075Z,25.40
2018-12-12T15:16:02.977Z,25.60
2018-12-12T15:18:31.303Z,37.23
2018-12-12T15:20:59.674Z,34.43
2018-12-12T15:23:27.970Z,38.07
2018-12-12T15:25:56.343Z,33.90
2018-12-12T15:28:24.766Z,33.17
2018-12-12T15:30:53.109Z,32.73
2018-12-12T15:33:21.439Z,32.90
2018-12-12T15:35:49.741Z,37.50
2018-12-12T15:38:18.085Z,50.23
2018-12-12T15:40:46.380Z,48.77
2018-12-12T15:43:15.034Z,46.80
2018-12-12T15:45:43.442Z,42.10
2018-12-12T15:48:11.783Z,45.73
2018-12-12T15:50:40.095Z,50.17
2018-12-12T15:53:08.482Z,48.60
2018-12-12T15:55:36.829Z,41.57
2018-12-12T15:58:05.077Z,33.57
2018-12-12T16:00:34.234Z,29.73
2018-12-12T16:03:02.655Z,27.37
2018-12-12T16:05:31.043Z,25.33
2018-12-12T16:07:59.434Z,26.20
2018-12-12T16:10:27.814Z,36.30
2018-12-12T16:12:56.265Z,40.30
2018-12-12T16:18:42.092Z,56.17
2018-12-12T16:21:10.546Z,62.00
2018-12-12T16:23:39.007Z,77.73
2018-12-12T16:26:07.363Z,90.53
2018-12-12T16:28:36.186Z,79.20
2018-12-12T16:31:04.658Z,41.40
2018-12-12T16:33:33.280Z,33.23
2018-12-12T16:36:01.776Z,28.90
2018-12-12T16:38:30.163Z,26.43
2018-12-12T16:40:58.546Z,29.53
2018-12-12T16:43:27.013Z,33.67
2018-12-12T16:45:55.322Z,28.07
2018-12-12T16:48:23.755Z,28.87
2018-12-12T16:50:51.982Z,29.23
2018-12-12T16:53:20.395Z,27.30
2018-12-12T16:55:48.774Z,25.20
2018-12-12T16:58:17.142Z,20.57
2018-12-12T17:00:45.591Z,21.00
2018-12-12T17:03:14.003Z,19.60
2018-12-12T17:05:42.368Z,21.33
2018-12-12T17:08:11.314Z,19.80
2018-12-12T17:10:39.973Z,16.50
2018-12-12T17:13:08.427Z,12.80
2018-12-12T17:16:20.334Z,11.50
2018-12-12T17:18:48.649Z,10.40
2018-12-12T17:21:16.974Z,17.33
2018-12-12T17:23:45.530Z,21.07
2018-12-12T17:26:13.875Z,24.77
2018-12-12T17:28:42.321Z,23.60
2018-12-12T17:31:10.607Z,24.30
2018-12-12T17:33:38.922Z,21.83
2018-12-12T17:36:07.378Z,18.63
2018-12-12T17:38:35.714Z,27.30
2018-12-12T17:41:04.031Z,27.70
2018-12-12T17:43:32.437Z,27.87
2018-12-12T17:46:00.895Z,29.57
2018-12-12T17:48:29.293Z,31.93
2018-12-12T17:50:57.676Z,32.80
2018-12-12T17:53:25.962Z,33.43
2018-12-12T17:55:54.304Z,32.83
2018-12-12T17:58:22.755Z,32.13
2018-12-12T18:00:51.142Z,30.87
2018-12-12T18:03:19.471Z,30.40
2018-12-12T18:05:47.857Z,29.70
2018-12-12T18:08:16.270Z,30.50
2018-12-12T18:10:44.586Z,30.77
2018-12-12T18:13:13.074Z,33.97
2018-12-12T18:19:01.276Z,44.87
2018-12-12T18:21:29.662Z,44.93
2018-12-12T18:23:57.998Z,43.13
2018-12-12T18:26:26.315Z,37.50
2018-12-12T18:28:54.745Z,37.50
2018-12-12T18:31:23.090Z,37.40
2018-12-12T18:33:51.438Z,38.63
2018-12-12T18:36:19.781Z,35.40
2018-12-12T18:38:48.181Z,31.60
2018-12-12T18:41:16.822Z,30.37
2018-12-12T18:43:45.150Z,31.70
2018-12-12T18:46:13.631Z,29.93
2018-12-12T18:48:42.025Z,27.47
2018-12-12T18:51:10.451Z,24.77
2018-12-12T18:53:38.783Z,23.90
2018-12-12T18:56:07.153Z,21.97
2018-12-12T18:58:35.978Z,23.33
2018-12-12T19:01:04.623Z,21.83
2018-12-12T19:03:32.978Z,20.50
2018-12-12T19:06:01.330Z,17.30
2018-12-12T19:08:29.751Z,19.97
2018-12-12T19:10:58.064Z,20.33
2018-12-12T19:13:26.450Z,21.47
2018-12-12T19:16:37.573Z,21.90
2018-12-12T19:19:05.938Z,27.00
2018-12-12T19:21:34.366Z,25.00
2018-12-12T19:24:03.159Z,20.03
2018-12-12T19:26:32.037Z,15.57
2018-12-12T19:29:00.438Z,11.13
2018-12-12T19:31:28.782Z,9.47
2018-12-12T19:33:57.074Z,9.73
2018-12-12T19:36:25.493Z,4.93
2018-12-12T19:38:53.852Z,2.57
2018-12-12T19:41:22.079Z,7.40
2018-12-12T19:43:50.410Z,11.13
2018-12-12T19:46:18.746Z,12.53
2018-12-12T19:48:47.094Z,12.90
2018-12-12T19:51:15.493Z,15.70
2018-12-12T19:53:43.900Z,29.67
2018-12-12T19:56:12.419Z,38.33
2018-12-12T19:58:40.816Z,30.83
2018-12-12T20:01:09.082Z,24.27
2018-12-12T20:03:37.381Z,20.33
2018-12-12T20:06:05.845Z,17.73
2018-12-12T20:08:34.182Z,13.80
2018-12-12T20:12:36.506Z,10.97
2018-12-12T20:18:42.728Z,11.50
2018-12-12T20:21:11.069Z,12.73
2018-12-12T20:23:40.823Z,12.93
2018-12-12T20:26:09.927Z,13.13
2018-12-12T20:28:38.293Z,11.83
2018-12-12T20:31:06.712Z,11.23
2018-12-12T20:33:35.030Z,10.93
2018-12-12T20:36:03.442Z,9.63
2018-12-12T20:38:31.827Z,8.67
2018-12-12T20:41:00.161Z,9.13
2018-12-12T20:43:28.597Z,10.10
2018-12-12T20:45:57.051Z,9.23
2018-12-12T20:49:07.017Z,9.70
2018-12-12T21:06:30.589Z,6.90
2018-12-12T21:08:59.058Z,10.50
2018-12-12T21:11:30.043Z,12.53
2018-12-12T21:13:58.427Z,11.90
2018-12-12T21:16:49.890Z,9.93
2018-12-12T21:19:18.456Z,10.67
2018-12-12T21:21:46.851Z,11.60
2018-12-12T21:24:15.197Z,11.07
2018-12-12T21:30:03.654Z,8.90
2018-12-12T21:32:32.038Z,7.30
2018-12-12T21:35:00.599Z,7.67
2018-12-12T21:37:28.923Z,16.97
2018-12-12T21:39:57.303Z,21.50
2018-12-12T21:42:51.126Z,18.30
2018-12-12T21:59:47.492Z,3.00
2018-12-12T22:02:49.714Z,3.00
2018-12-12T22:09:28.137Z,2.80
2018-12-12T22:12:42.143Z,3.67
2018-12-12T22:16:24.530Z,4.03
2018-12-12T22:18:53.398Z,4.57
2018-12-12T22:21:21.769Z,3.87
2018-12-12T22:23:50.086Z,3.83
2018-12-12T22:26:18.570Z,4.33
2018-12-12T22:28:47.135Z,4.80
2018-12-12T22:31:15.680Z,4.40
2018-12-12T22:33:44.130Z,3.43
2018-12-12T22:36:14.329Z,3.67
2018-12-12T22:49:19.150Z,5.30
2018-12-12T22:51:47.570Z,6.20
2018-12-12T22:54:17.527Z,6.07
2018-12-12T22:56:49.164Z,7.70
2018-12-12T22:59:21.651Z,6.83
2018-12-12T23:01:52.166Z,8.23
2018-12-12T23:04:24.826Z,8.07
2018-12-12T23:07:15.205Z,7.73
2018-12-12T23:09:43.582Z,8.07
2018-12-12T23:12:11.895Z,7.27
2018-12-12T23:14:40.389Z,6.53
2018-12-12T23:17:08.712Z,6.57
2018-12-12T23:19:37.113Z,5.63
2018-12-12T23:22:05.470Z,4.97
2018-12-12T23:24:34.465Z,4.67
2018-12-12T23:27:03.536Z,4.60
2018-12-12T23:29:33.020Z,5.87
2018-12-12T23:32:01.433Z,9.10
2018-12-12T23:34:29.718Z,12.30
2018-12-12T23:36:58.062Z,13.63
2018-12-12T23:39:26.496Z,14.60
2018-12-12T23:41:57.197Z,13.60
2018-12-12T23:44:26.678Z,14.40
2018-12-12T23:46:56.027Z,13.57
2018-12-12T23:49:24.485Z,13.37
2018-12-12T23:51:53.688Z,14.07
2018-12-12T23:54:22.325Z,16.23
2018-12-12T23:56:50.586Z,16.43
2018-12-12T23:59:18.941Z,15.13
